Retsof, NY (14539)

10:25 PM EDT on May 24, 2015 (GMT -0400)
Pavilion NY | | Change Station
CLOSE
Current Station
Personal Weather Station
Location: Pavilion, NY
Elevation: 994 ft
Nearby Weather Stations

Elev 994 ft 42.85 °N, 77.94 °W | Updated 3 minutes ago

Overcast
Overcast
67.9 °F
Feels Like 67.9 °F
N
1.0
Wind Variable Wind from SE
Gusts 4.0 mph

Today
High -- | Low -- °F
--% Chance of Precip.
Yesterday
High -- | Low -- °F
Precip. -- in
5:40 AM 8:36 PM
Waxing Crescent, 44% visible
Pressure 30.23 in
Visibility 10.0 miles
Clouds Clear
Dew Point 48 °F
Humidity 50%
Rainfall 0.00 in
Snow Depth Not available.
UV 0 out of 12
Pollen 10.00 out of 12
Air Quality Not available.
Flu Activity Widespread
METAR KDSV 250154Z AUTO 17004KT 10SM CLR 18/11 A3021 RMK AO2 SLP236 T01830111

More Conditions Fewer Conditions

Pressure 30.23 in
Visibility 10.0 miles
Clouds Clear
Dew Point 48 °F
Humidity 50%
Rainfall 0.00 in
Snow Depth Not available.
UV 0 out of 12
Pollen 10.00 out of 12
Air Quality Not available.
Flu Activity Widespread
METAR KDSV 250154Z AUTO 17004KT 10SM CLR 18/11 A3021 RMK AO2 SLP236 T01830111

More Conditions Fewer Conditions

10-Day Weather Forecast

Almanac

Astronomy

May. 24, 2015 Rise Set
Actual Time
Civil Twilight
Nautical Twilight
Astronomical Twilight
Moon
Length of Visible Light
Length of Day
Tomorrow will be .
, % of the Moon is Illuminated

Today's Extremes

State Highs State Lows

Community

WunderPhotos

Upload Photos

1,823,923 photos uploaded!

WunderBlogs® & News

Nearby

Air Quality

  Air Quality AQ Index Pollutant
Not available.

Snow Depth

Station Depth Elevation

Earthquake Activity

City Distance Mag. Time & Date
Minimum magnitude displayed is 2.5.

Coastal Water Temperatures

Place Temperature

Stations

Nearby Weather Stations

Station Location Temp. Windchill Dew Point Humidity Wind Precip. Elev Updated Type